Overview Statistics Trail Chart Weather Telemetry Raw packets
 

This is the latest recevied weather packets stored in our database for station/object EB1BWO-11. If no packets are shown the sender has not sent any weather packets the latest 10 day(s).

<< 25 26 27 28 29 30 31 >>
Time Temp. Humidity Pressure Rain* Wind** Luminosity Snow
1787960628 20° C 64% 1022.2 hPa - - - -
1787959728 20° C 64% 1022.3 hPa - - - -
1787958828 20° C 65% 1022.4 hPa - - - -
1787957927 20° C 64% 1022.5 hPa - - - -
1787957025 20.56° C 64% 1022.6 hPa - - - -
1787956125 20.56° C 65% 1022.6 hPa - - - -
1787955224 20.56° C 65% 1022.5 hPa - - - -
1787954323 20.56° C 64% 1022.7 hPa - - - -
1787953423 21.11° C 64% 1022.6 hPa - - - -
1787952521 21.11° C 63% 1022.5 hPa - - - -
1787951621 21.11° C 63% 1022.7 hPa - - - -
1787950720 21.11° C 63% 1022.7 hPa - - - -
1787949819 21.11° C 62% 1022.6 hPa - - - -
1787948919 21.11° C 62% 1022.7 hPa - - - -
1787918934 32.22° C 48% 1019.8 hPa - - - -
1787918034 34.44° C 42% 1019.7 hPa - - - -
1787917133 37.22° C 39% 1019.5 hPa - - - -
1787916233 41.67° C 36% 1019.6 hPa - - - -
1787915333 40.56° C 37% 1019.7 hPa - - - -
1787914432 35° C 42% 1019.6 hPa - - - -
1787913532 34.44° C 41% 1019.8 hPa - - - -
1787912631 33.89° C 43% 1019.8 hPa - - - -
1787911731 30° C 49% 1019.8 hPa - - - -
1787910830 31.11° C 49% 1019.8 hPa - - - -
1787909929 28.33° C 53% 1019.7 hPa - - - -

* Rain since midnight (hover to see other rain measurements)
** Current wind speed in m/s (hover to see current wind gust speed)